메인 페이지
METAR-TAF:

METAR-TAF

공항 :

옐로나이프, 노스웨스트 준주, 캐나다

위도: 62-28N, 경도: 114-27W, 고도: 205m

현재 날씨관측

예보는 32분 전, 07:00시(UTC)에 발표되었습니다.
북동8kt
온도 -7°C
습도 79%
기압 1018 hPa
시정: 24.1km
맑음

METAR: CYZF 210700Z 05008KT 15SM SKC M07/M10 A3006 RMK SLP198

시각: 01:32 (07:32 UTC)

예보

예보는 1 시간 53분 전, 05:39시(UTC)에 발표되었습니다.
예보 대상 시간: 21일 06시부터 22일 06시까지 (UTC)
북동5kt
시정: 10km
고도 3000ft 상공 구름 조금
고도 12000ft 상공 구름 보통
21일 0900시부터 (UTC)
동북동6kt
시정: 10km
고도 800ft 상공 구름 보통
일시적
21일 09시부터 21일 18시까지 (UTC)
고도 800ft 상공 구름 많음
21일 1800시부터 (UTC)
동남동8kt
시정: 10km
고도 1200ft 상공 구름 많음
고도 8000ft 상공 흐림
일시적
21일 18시부터 21일 20시까지 (UTC)
고도 1200ft 상공 구름 보통
고도 8000ft 상공 구름 많음
21일 2000시부터 (UTC)
남동8kt
시정: 10km
고도 2000ft 상공 구름 조금
고도 6000ft 상공 구름 많음
22일 0200시부터 (UTC)
동남동10kt
시정: 10km
고도 6000ft 상공 구름 보통

TAF: CYZF 210539Z 2106/2206 04005KT P6SM FEW030 SCT120 FM210900 06006KT P6SM SCT008 TEMPO 2109/2118 BKN008 FM211800 12008KT P6SM BKN012 OVC080 TEMPO 2118/2120 SCT012 BKN080 FM212000 14008KT P6SM FEW020 BKN060 FM220200 12010KT P6SM SCT060 RMK NXT FCST BY 211200Z

4,000개 이상의 공항 관측 자료 및 예보 (METAR 및 TAF 보고).

지도상에서 검색 가능한 기상관측소가 노란 점과 빨간 점으로 표시되어 있습니다.

기상관측소 명을 보려면 표시 위로 마우스를 이동하세요.

날씨 관측과 예보를 보려면 클릭하세요.

지도 변경 : 확대하려면 엑스 표시가 있는 녹색 버튼, 축소하려면 빼기 표시가 있는 녹색 버튼, 다음 페이지의 지도를 보려면 녹색 화살표를 클릭하세요.


METAR-TAF: